createdAt,value
2023-05-10T00:00:47.596Z,3.03
2023-05-10T00:04:19.753Z,3.00
2023-05-10T00:07:51.669Z,2.40
2023-05-10T00:11:25.961Z,2.67
2023-05-10T00:14:58.010Z,2.80
2023-05-10T00:18:29.669Z,2.70
2023-05-10T00:22:01.641Z,3.05
2023-05-10T00:25:33.397Z,2.33
2023-05-10T00:29:05.482Z,2.40
2023-05-10T00:32:37.364Z,3.00
2023-05-10T00:36:12.645Z,2.33
2023-05-10T00:39:44.390Z,2.42
2023-05-10T00:43:16.311Z,2.47
2023-05-10T00:46:50.389Z,2.33
2023-05-10T00:50:23.840Z,2.42
2023-05-10T00:53:57.036Z,2.40
2023-05-10T00:57:28.877Z,2.70
2023-05-10T01:01:01.972Z,2.35
2023-05-10T01:04:34.321Z,1.80
2023-05-10T01:08:07.279Z,2.13
2023-05-10T01:11:41.104Z,2.37
2023-05-10T01:15:17.118Z,2.70
2023-05-10T01:18:49.599Z,2.20
2023-05-10T01:22:43.143Z,2.10
2023-05-10T01:26:49.037Z,3.07
2023-05-10T01:30:52.558Z,2.45
2023-05-10T01:34:36.766Z,2.30
2023-05-10T01:38:17.596Z,2.40
2023-05-10T01:41:55.541Z,2.00
2023-05-10T01:45:40.140Z,2.38
2023-05-10T01:49:19.452Z,2.30
2023-05-10T01:52:55.811Z,2.30
2023-05-10T01:56:30.510Z,2.30
2023-05-10T02:00:05.750Z,2.30
2023-05-10T02:03:39.184Z,2.22
2023-05-10T02:07:13.288Z,2.60
2023-05-10T02:10:47.487Z,2.13
2023-05-10T02:14:20.879Z,2.45
2023-05-10T02:17:56.245Z,2.47
2023-05-10T02:21:30.071Z,2.03
2023-05-10T02:25:03.100Z,2.00
2023-05-10T02:28:36.630Z,2.33
2023-05-10T02:32:11.032Z,2.50
2023-05-10T02:35:43.222Z,2.60
2023-05-10T02:39:16.731Z,2.20
2023-05-10T02:42:51.537Z,2.50
2023-05-10T02:46:24.650Z,2.50
2023-05-10T02:49:56.740Z,2.00
2023-05-10T02:53:33.999Z,2.55
2023-05-10T02:57:07.332Z,2.28
2023-05-10T03:00:39.450Z,2.20
2023-05-10T03:04:11.235Z,2.23
2023-05-10T03:07:43.821Z,2.80
2023-05-10T03:11:37.569Z,2.35
2023-05-10T03:15:29.749Z,2.57
2023-05-10T03:19:12.295Z,2.30
2023-05-10T03:23:01.515Z,2.70
2023-05-10T03:26:34.648Z,3.10
2023-05-10T03:30:08.857Z,2.20
2023-05-10T03:33:54.968Z,1.98
2023-05-10T03:37:27.132Z,2.40
2023-05-10T03:40:58.868Z,2.27
2023-05-10T03:44:31.103Z,2.23
2023-05-10T03:48:03.337Z,2.53
2023-05-10T03:51:35.463Z,2.20
2023-05-10T03:55:07.577Z,2.77
2023-05-10T03:58:39.706Z,2.77
2023-05-10T04:02:12.824Z,3.03
2023-05-10T04:05:44.623Z,2.13
2023-05-10T04:09:17.621Z,2.60
2023-05-10T04:12:52.134Z,2.33
2023-05-10T04:16:25.460Z,2.58
2023-05-10T04:19:57.503Z,2.72
2023-05-10T04:23:29.298Z,2.80
2023-05-10T04:27:01.696Z,2.55
2023-05-10T04:30:33.861Z,2.80
2023-05-10T04:34:06.103Z,2.40
2023-05-10T04:37:38.109Z,2.77
2023-05-10T04:41:11.676Z,2.67
2023-05-10T04:44:43.936Z,2.85
2023-05-10T04:48:18.859Z,2.83
2023-05-10T04:51:50.845Z,2.87
2023-05-10T04:55:23.032Z,2.70
2023-05-10T04:58:55.121Z,2.60
2023-05-10T05:02:26.810Z,3.17
2023-05-10T05:05:58.898Z,2.40
2023-05-10T05:09:30.868Z,2.63
2023-05-10T05:13:02.991Z,3.05
2023-05-10T05:16:34.929Z,2.70
2023-05-10T05:20:07.821Z,2.80
2023-05-10T05:23:39.503Z,3.50
2023-05-10T05:27:11.480Z,3.00
2023-05-10T05:30:44.878Z,3.38
2023-05-10T05:34:16.950Z,2.70
2023-05-10T05:37:48.967Z,2.67
2023-05-10T05:41:21.051Z,3.38
2023-05-10T05:44:53.160Z,2.83
2023-05-10T05:48:25.194Z,2.60
2023-05-10T05:52:02.465Z,3.20
2023-05-10T05:55:34.836Z,2.88
2023-05-10T05:59:07.095Z,2.65
2023-05-10T06:02:38.844Z,2.80
2023-05-10T06:06:13.516Z,2.90
2023-05-10T06:09:45.722Z,2.30
2023-05-10T06:13:17.900Z,2.90
2023-05-10T06:16:50.392Z,2.93
2023-05-10T06:20:22.802Z,3.15
2023-05-10T06:23:58.925Z,3.15
2023-05-10T06:27:31.426Z,3.03
2023-05-10T06:31:03.776Z,3.03
2023-05-10T06:34:35.867Z,2.53
2023-05-10T06:38:08.271Z,2.80
2023-05-10T06:41:40.219Z,2.97
2023-05-10T06:45:12.584Z,2.35
2023-05-10T06:48:44.637Z,2.47
2023-05-10T06:52:16.703Z,3.15
2023-05-10T06:55:50.262Z,3.08
2023-05-10T06:59:25.071Z,2.88
2023-05-10T07:02:57.227Z,2.90
2023-05-10T07:06:34.162Z,3.13
2023-05-10T07:10:06.826Z,2.42
2023-05-10T07:13:40.149Z,2.67
2023-05-10T07:17:12.446Z,2.80
2023-05-10T07:20:44.308Z,2.23
2023-05-10T07:24:16.287Z,2.10
2023-05-10T07:27:49.585Z,3.00
2023-05-10T07:31:21.830Z,2.47
2023-05-10T07:34:53.628Z,2.87
2023-05-10T07:38:25.716Z,3.00
2023-05-10T07:41:58.126Z,1.95
2023-05-10T07:45:29.866Z,2.47
2023-05-10T07:49:02.277Z,2.07
2023-05-10T07:52:34.494Z,2.37
2023-05-10T07:56:33.702Z,2.78
2023-05-10T08:00:08.596Z,2.40
2023-05-10T08:03:40.719Z,3.17
2023-05-10T08:07:12.706Z,2.27
2023-05-10T08:10:45.949Z,2.03
2023-05-10T08:14:18.138Z,2.30
2023-05-10T08:17:50.312Z,1.75
2023-05-10T08:21:22.418Z,2.30
2023-05-10T08:24:54.266Z,2.30
2023-05-10T08:28:26.486Z,2.53
2023-05-10T08:31:58.204Z,2.33
2023-05-10T08:35:30.400Z,2.00
2023-05-10T08:39:02.230Z,1.43
2023-05-10T08:42:38.726Z,1.92
2023-05-10T08:46:11.629Z,1.77
2023-05-10T08:49:45.745Z,1.90
2023-05-10T08:53:18.564Z,2.20
2023-05-10T08:56:50.412Z,1.75
2023-05-10T09:00:24.301Z,1.90
2023-05-10T09:03:56.726Z,2.17
2023-05-10T09:07:28.896Z,1.43
2023-05-10T09:11:02.555Z,1.70
2023-05-10T09:14:36.460Z,1.13
2023-05-10T09:18:10.067Z,1.73
2023-05-10T09:21:42.255Z,1.50
2023-05-10T09:25:16.301Z,1.47
2023-05-10T09:28:57.162Z,0.90
2023-05-10T09:32:40.300Z,1.20
2023-05-10T09:36:15.147Z,1.52
2023-05-10T09:39:47.281Z,1.57
2023-05-10T09:43:18.991Z,1.50
2023-05-10T09:46:53.814Z,1.27
2023-05-10T09:50:26.320Z,1.20
2023-05-10T09:54:15.898Z,1.23
2023-05-10T09:57:49.252Z,1.30
2023-05-10T10:01:21.523Z,1.27
2023-05-10T10:04:54.209Z,1.20
2023-05-10T10:08:27.903Z,1.00
2023-05-10T10:12:03.469Z,1.10
2023-05-10T10:15:36.025Z,1.10
2023-05-10T10:19:08.835Z,1.17
2023-05-10T10:22:41.319Z,1.10
2023-05-10T10:26:13.978Z,1.30
2023-05-10T10:29:57.192Z,1.83
2023-05-10T10:33:48.361Z,1.13
2023-05-10T10:37:20.554Z,1.20
2023-05-10T10:41:27.983Z,0.90
2023-05-10T10:45:27.360Z,1.67
2023-05-10T10:49:13.698Z,1.73
2023-05-10T10:52:46.574Z,1.25
2023-05-10T10:56:24.596Z,1.33
2023-05-10T11:00:22.549Z,1.20
2023-05-10T11:04:06.838Z,1.73
2023-05-10T11:07:52.878Z,1.17
2023-05-10T11:11:27.856Z,1.90
2023-05-10T11:14:59.936Z,1.77
2023-05-10T11:18:31.923Z,1.83
2023-05-10T11:22:07.118Z,1.33
2023-05-10T11:25:44.421Z,1.65
2023-05-10T11:29:17.157Z,1.70
2023-05-10T11:32:49.322Z,2.33
2023-05-10T11:36:24.574Z,1.92
2023-05-10T11:39:56.692Z,2.20
2023-05-10T11:43:31.586Z,1.50
2023-05-10T11:47:04.226Z,1.27
2023-05-10T11:50:36.620Z,1.55
2023-05-10T11:54:10.518Z,1.50
2023-05-10T11:57:45.181Z,1.23
2023-05-10T12:01:17.417Z,1.57
2023-05-10T12:04:49.655Z,1.65
2023-05-10T12:08:27.075Z,1.90
2023-05-10T12:11:58.820Z,2.05
2023-05-10T12:15:31.118Z,1.80
2023-05-10T12:19:03.448Z,1.80
2023-05-10T12:22:38.169Z,2.97
2023-05-10T12:26:11.260Z,2.28
2023-05-10T12:29:45.503Z,2.13
2023-05-10T12:33:19.178Z,2.10
2023-05-10T12:36:53.447Z,1.93
2023-05-10T12:40:25.484Z,2.25
2023-05-10T12:43:57.514Z,1.77
2023-05-10T12:47:29.613Z,1.60
2023-05-10T12:51:02.951Z,1.97
2023-05-10T12:54:34.738Z,2.20
2023-05-10T12:58:06.975Z,2.13
2023-05-10T13:01:39.340Z,2.10
2023-05-10T13:05:12.361Z,2.13
2023-05-10T13:08:44.598Z,2.10
2023-05-10T13:12:16.453Z,1.92
2023-05-10T13:15:48.425Z,2.08
2023-05-10T13:19:20.374Z,2.00
2023-05-10T13:22:55.529Z,2.60
2023-05-10T13:26:27.660Z,2.30
2023-05-10T13:30:00.350Z,1.90
2023-05-10T13:33:32.369Z,2.10
2023-05-10T13:37:04.081Z,2.05
2023-05-10T13:40:37.047Z,2.13
2023-05-10T13:44:09.217Z,2.27
2023-05-10T13:47:41.422Z,1.92
2023-05-10T13:51:13.736Z,2.08
2023-05-10T13:54:45.494Z,1.95
2023-05-10T13:58:17.811Z,2.42
2023-05-10T14:01:49.651Z,2.27
2023-05-10T14:05:25.387Z,2.53
2023-05-10T14:08:58.423Z,2.38
2023-05-10T14:12:30.693Z,2.00
2023-05-10T14:16:02.513Z,1.70
2023-05-10T14:19:35.245Z,2.30
2023-05-10T14:23:07.990Z,1.90
2023-05-10T14:26:41.083Z,2.78
2023-05-10T14:30:13.547Z,2.88
2023-05-10T14:33:45.332Z,2.83
2023-05-10T14:37:57.446Z,3.22
2023-05-10T14:45:33.238Z,2.40
2023-05-10T14:49:05.141Z,2.90
2023-05-10T14:52:37.420Z,2.50
2023-05-10T14:56:09.249Z,2.15
2023-05-10T14:59:41.370Z,1.58
2023-05-10T15:03:13.786Z,1.80
2023-05-10T15:06:46.290Z,2.47
2023-05-10T15:10:19.128Z,2.88
2023-05-10T15:13:50.830Z,2.58
2023-05-10T15:17:22.846Z,2.50
2023-05-10T15:20:54.535Z,1.98
2023-05-10T15:24:37.449Z,2.53
2023-05-10T15:28:09.415Z,2.45
2023-05-10T15:31:41.484Z,2.03
2023-05-10T15:35:14.536Z,1.83
2023-05-10T15:38:46.215Z,2.13
2023-05-10T15:42:18.261Z,1.50
2023-05-10T15:45:49.984Z,1.45
2023-05-10T15:49:22.032Z,2.28
2023-05-10T15:52:54.164Z,1.80
2023-05-10T15:56:26.752Z,1.52
2023-05-10T15:59:58.627Z,1.73
2023-05-10T16:03:31.051Z,1.98
2023-05-10T16:07:05.871Z,2.10
2023-05-10T16:10:38.207Z,2.20
2023-05-10T16:14:10.848Z,2.92
2023-05-10T16:17:43.182Z,1.70
2023-05-10T16:21:18.001Z,2.22
2023-05-10T16:24:53.542Z,2.30
2023-05-10T16:28:25.941Z,2.30
2023-05-10T16:31:57.863Z,1.92
2023-05-10T16:35:30.034Z,1.95
2023-05-10T16:39:02.832Z,2.13
2023-05-10T16:42:34.697Z,2.20
2023-05-10T16:46:11.785Z,2.37
2023-05-10T16:49:43.523Z,2.40
2023-05-10T16:53:16.260Z,1.90
2023-05-10T16:56:48.405Z,2.30
2023-05-10T17:00:20.901Z,1.80
2023-05-10T17:03:52.768Z,2.03
2023-05-10T17:07:26.388Z,1.80
2023-05-10T17:11:01.434Z,2.10
2023-05-10T17:14:34.076Z,1.98
2023-05-10T17:18:07.446Z,3.20
2023-05-10T17:21:41.136Z,1.60
2023-05-10T17:25:12.843Z,2.00
2023-05-10T17:28:45.009Z,2.30
2023-05-10T17:32:16.891Z,1.80
2023-05-10T17:35:48.988Z,1.67
2023-05-10T17:39:21.460Z,2.00
2023-05-10T17:42:53.512Z,1.65
2023-05-10T17:46:25.639Z,1.77
2023-05-10T17:49:57.469Z,2.33
2023-05-10T17:53:29.599Z,2.80
2023-05-10T17:57:01.677Z,1.88
2023-05-10T18:00:33.762Z,1.55
2023-05-10T18:04:06.134Z,1.58
2023-05-10T18:07:38.403Z,1.70
2023-05-10T18:11:11.331Z,1.45
2023-05-10T18:14:44.032Z,1.98
2023-05-10T18:18:16.969Z,1.67
2023-05-10T18:21:49.266Z,1.73
2023-05-10T18:25:21.738Z,1.43
2023-05-10T18:28:53.809Z,1.85
2023-05-10T18:32:25.584Z,1.85
2023-05-10T18:36:00.881Z,2.28
2023-05-10T18:39:33.748Z,1.87
2023-05-10T18:43:05.718Z,2.10
2023-05-10T18:46:38.291Z,2.00
2023-05-10T18:50:11.760Z,2.50
2023-05-10T18:53:43.909Z,1.60
2023-05-10T18:57:16.469Z,1.80
2023-05-10T19:00:49.236Z,1.55
2023-05-10T19:04:21.981Z,1.45
2023-05-10T19:07:53.994Z,2.22
2023-05-10T19:11:26.352Z,1.70
2023-05-10T19:14:58.254Z,2.08
2023-05-10T19:18:31.251Z,1.50
2023-05-10T19:22:54.113Z,1.90
2023-05-10T19:26:31.941Z,1.70
2023-05-10T19:30:04.587Z,2.92
2023-05-10T19:33:38.269Z,2.35
2023-05-10T19:37:11.234Z,2.15
2023-05-10T19:40:43.385Z,2.20
2023-05-10T19:44:15.272Z,2.45
2023-05-10T19:47:48.064Z,2.88
2023-05-10T19:51:19.882Z,2.55
2023-05-10T19:54:52.216Z,3.03
2023-05-10T19:58:25.082Z,2.77
2023-05-10T20:01:57.167Z,2.45
2023-05-10T20:05:29.515Z,2.28
2023-05-10T20:09:01.245Z,2.23
2023-05-10T20:12:33.298Z,1.93
2023-05-10T20:16:06.158Z,2.15
2023-05-10T20:19:38.155Z,2.17
2023-05-10T20:23:10.177Z,2.40
2023-05-10T20:26:42.953Z,1.80
2023-05-10T20:30:15.348Z,1.67
2023-05-10T20:33:47.346Z,1.70
2023-05-10T20:37:19.623Z,1.65
2023-05-10T20:40:52.274Z,1.80
2023-05-10T20:44:24.244Z,1.75
2023-05-10T20:47:56.210Z,1.77
2023-05-10T20:51:30.386Z,1.70
2023-05-10T20:55:02.482Z,1.90
2023-05-10T20:58:34.208Z,1.67
2023-05-10T21:02:06.812Z,1.65
2023-05-10T21:05:38.911Z,2.63
2023-05-10T21:09:11.323Z,1.77
2023-05-10T21:12:43.404Z,1.90
2023-05-10T21:16:15.532Z,2.00
2023-05-10T21:19:47.365Z,1.53
2023-05-10T21:23:19.521Z,2.00
2023-05-10T21:26:51.671Z,2.15
2023-05-10T21:30:23.434Z,1.70
2023-05-10T21:33:56.230Z,1.87
2023-05-10T21:37:28.240Z,1.70
2023-05-10T21:40:59.913Z,2.28
2023-05-10T21:44:32.511Z,2.13
2023-05-10T21:48:04.833Z,2.00
2023-05-10T21:51:37.140Z,2.20
2023-05-10T21:55:09.877Z,2.08
2023-05-10T21:58:41.897Z,2.20
2023-05-10T22:02:14.040Z,1.73
2023-05-10T22:05:45.982Z,1.73
2023-05-10T22:09:19.160Z,2.22
2023-05-10T22:12:51.805Z,1.95
2023-05-10T22:16:24.566Z,2.00
2023-05-10T22:19:56.684Z,2.33
2023-05-10T22:23:28.834Z,2.20
2023-05-10T22:27:01.878Z,2.28
2023-05-10T22:30:33.936Z,2.03
2023-05-10T22:34:06.887Z,1.83
2023-05-10T22:37:39.122Z,2.65
2023-05-10T22:41:11.222Z,2.15
2023-05-10T22:44:43.689Z,2.50
2023-05-10T22:48:16.237Z,2.50
2023-05-10T22:51:48.237Z,2.63
2023-05-10T22:55:19.969Z,2.08
2023-05-10T22:58:52.127Z,2.50
2023-05-10T23:02:24.103Z,2.50
2023-05-10T23:05:56.532Z,2.30
2023-05-10T23:09:28.901Z,2.83
2023-05-10T23:13:00.721Z,2.83
2023-05-10T23:16:32.797Z,2.20
2023-05-10T23:20:05.356Z,2.45
2023-05-10T23:23:37.364Z,2.77
2023-05-10T23:27:09.426Z,2.37
2023-05-10T23:30:41.621Z,2.13
2023-05-10T23:34:13.628Z,2.60
2023-05-10T23:37:45.408Z,2.20
2023-05-10T23:41:17.527Z,2.45
2023-05-10T23:44:50.866Z,3.15
2023-05-10T23:48:23.395Z,2.45
2023-05-10T23:51:55.036Z,2.60
2023-05-10T23:55:27.322Z,2.33
2023-05-10T23:58:59.162Z,2.60
